(°C)
17°
17°
17°
17°
17°
17°
17°
(°C)
15°
15°
15°
15°
14°
15°
15°
V
V
VSV
VSV
VSV
VSV
V
(km/h)
5-10
6-11
7-13
9-16
11-19
12-22
14-25
(mm)
0
0
0
0
0
0
0
(%)
7
11
7
4
0
3
6

Elevația soarelui

/ 25.1°
sun-icon
UV 6
05:41
19:50
Al doilea pătrar (338°)
04:34
18:29

METAR pentru San Diego (KSAN)

Ora Condiții Temperatură/
Punctul de rouă
Vânt Vizibilitate Vremea Nori Presiune Schimbă Brut
VFR 16.7°C / 11.7°C 290º 5kt >10km - Scattered Clouds 1900ft
Overcast 3200ft
1015 - KSAN 281351Z 29005KT 10SM SCT019 OVC032 17/12 A2999 RMK AO2 SLP155 T01670117
MVFR 16.1°C / 12.2°C 290º 4kt >10km - Scattered Clouds 1900ft
Broken Clouds 2100ft
Overcast 3200ft
1014 - KSAN 281251Z 29004KT 10SM SCT019 BKN021 OVC032 16/12 A2997 RMK AO2 SLP149 T01610122
MVFR 16.1°C / 12.2°C 300º 5kt >10km - Broken Clouds 2800ft
Overcast 3400ft
- KSAN 281214Z 30005KT 10SM BKN028 OVC034 16/12 A2997 RMK AO2 T01610122
VFR 16.1°C / 11.7°C 300º 4kt >10km - Broken Clouds 3400ft
Broken Clouds 25000ft
1014 - KSAN 281151Z 30004KT 10SM BKN034 BKN250 16/12 A2997 RMK AO2 SLP147 T01610117 10167 20161 55005
VFR 16.1°C / 12.8°C 300º 4kt >10km - Overcast 3100ft 1014 - KSAN 281051Z 30004KT 10SM OVC031 16/13 A2996 RMK AO2 SLP144 T01610128
MVFR 16.1°C / 12.2°C 290º 4kt >10km - Overcast 3000ft - KSAN 281009Z 29004KT 10SM OVC030 16/12 A2996 RMK AO2 T01610122
MVFR 16.1°C / 12.2°C 300º 4kt >10km - Overcast 2900ft 1014 - KSAN 280951Z 30004KT 10SM OVC029 16/12 A2997 RMK AO2 SLP148 T01610122
MVFR 16.7°C / 11.7°C 300º 5kt >10km - Overcast 2400ft 1015 - KSAN 280851Z 30005KT 10SM OVC024 17/12 A2998 RMK AO2 SLP152 T01670117 58006
MVFR 16.7°C / 11.7°C 290º 5kt >10km - Overcast 2300ft 1015 - KSAN 280751Z 29005KT 10SM OVC023 17/12 A2999 RMK AO2 SLP153 T01670117 402000156
MVFR 16.7°C / 12.2°C 300º 6kt >10km - Overcast 2200ft 1015 - KSAN 280651Z 30006KT 10SM OVC022 17/12 A3000 RMK AO2 SLP157 T01670122
MVFR 16.7°C / 12.2°C 320º 5kt >10km - Broken Clouds 2300ft
Broken Clouds 25000ft
1015 - KSAN 280551Z 32005KT 10SM BKN023 BKN250 17/12 A3000 RMK AO2 SLP158 T01670122 10183 20167 50003
MVFR 16.7°C / 12.2°C 320º 6kt >10km - Broken Clouds 2000ft
Broken Clouds 25000ft
1015 - KSAN 280451Z 32006KT 10SM BKN020 BKN250 17/12 A3000 RMK AO2 SLP159 T01670122
MVFR 16.7°C / 12.2°C 300º 5kt >10km - Broken Clouds 1900ft
Broken Clouds 25000ft
1015 - KSAN 280351Z 30005KT 10SM BKN019 BKN250 17/12 A3000 RMK AO2 SLP157 T01670122
MVFR 16.7°C / 12.2°C 300º 5kt >10km - Broken Clouds 1900ft
Broken Clouds 25000ft
- KSAN 280326Z 30005KT 10SM BKN019 BKN250 17/12 A2999 RMK AO2 T01670122
VFR 16.7°C / 12.2°C 290º 7kt >10km - Scattered Clouds 2000ft
Broken Clouds 25000ft
1015 - KSAN 280251Z 29007KT 10SM SCT020 BKN250 17/12 A2999 RMK AO2 SLP155 T01670122 55006
VFR 16.7°C / 11.1°C 290º 6kt >10km - Few Clouds 2500ft
Broken Clouds 25000ft
1015 - KSAN 280151Z 29006KT 10SM FEW025 BKN250 17/11 A2999 RMK AO2 SLP155 T01670111
VFR 17.8°C / 11.1°C 290º 8kt >10km - Few Clouds 2500ft
Broken Clouds 25000ft
1015 - KSAN 280051Z 29008KT 10SM FEW025 BKN250 18/11 A3000 RMK AO2 SLP157 T01780111
VFR 18.3°C / 11.7°C 310º 8kt >10km - Few Clouds 2500ft
Broken Clouds 25000ft
1016 - KSAN 272351Z 31008KT 10SM FEW025 BKN250 18/12 A3001 RMK AO2 SLP161 T01830117 10200 20178 56013
VFR 18.9°C / 11.7°C 300º 8kt >10km - Few Clouds 2500ft
Broken Clouds 25000ft
1016 - KSAN 272251Z 30008KT 10SM FEW025 BKN250 19/12 A3001 RMK AO2 SLP163 T01890117
VFR 18.9°C / 11.1°C 300º 8kt >10km - Few Clouds 2500ft
Scattered Clouds 25000ft
1017 - KSAN 272151Z 30008KT 10SM FEW025 SCT250 19/11 A3003 RMK AO2 SLP170 T01890111
VFR 18.9°C / 11.7°C 280º variable 240º to 310º 9kt >10km - Clear 1017 - KSAN 272051Z 28009KT 240V310 10SM CLR 19/12 A3005 RMK AO2 SLP174 T01890117 58011
VFR 18.9°C / 11.1°C 260º 7kt Gust 15kt >10km - Few Clouds 2700ft
Scattered Clouds 25000ft
1017 - KSAN 271951Z 26007G15KT 10SM FEW027 SCT250 19/11 A3006 RMK AO2 SLP178 T01890111
MVFR 19.4°C / 11.1°C 310º 6kt >10km - Broken Clouds 3000ft 1018 - KSAN 271851Z 31006KT 10SM BKN030 19/11 A3008 RMK AO2 SLP184 T01940111
MVFR 18.3°C / 10.6°C 280º 8kt >10km - Broken Clouds 3000ft - KSAN 271837Z 28008KT 10SM BKN030 18/11 A3007 RMK AO2 T01830106

VFR

16.7°C / 11.7°C

[Mai mult]
Vânt 290º 5kt
Vizibilitate >10km
Vremea -
Nori Scattered Clouds 1900ft
Overcast 3200ft
Presiune 1015
Schimbă -
Brut KSAN 281351Z 29005KT 10SM SCT019 OVC032 17/12 A2999 RMK AO2 SLP155 T01670117

MVFR

16.1°C / 12.2°C

[Mai mult]
Vânt 290º 4kt
Vizibilitate >10km
Vremea -
Nori Scattered Clouds 1900ft
Broken Clouds 2100ft
Overcast 3200ft
Presiune 1014
Schimbă -
Brut KSAN 281251Z 29004KT 10SM SCT019 BKN021 OVC032 16/12 A2997 RMK AO2 SLP149 T01610122

MVFR

16.1°C / 12.2°C

[Mai mult]
Vânt 300º 5kt
Vizibilitate >10km
Vremea -
Nori Broken Clouds 2800ft
Overcast 3400ft
Presiune
Schimbă -
Brut KSAN 281214Z 30005KT 10SM BKN028 OVC034 16/12 A2997 RMK AO2 T01610122

VFR

16.1°C / 11.7°C

[Mai mult]
Vânt 300º 4kt
Vizibilitate >10km
Vremea -
Nori Broken Clouds 3400ft
Broken Clouds 25000ft
Presiune 1014
Schimbă -
Brut KSAN 281151Z 30004KT 10SM BKN034 BKN250 16/12 A2997 RMK AO2 SLP147 T01610117 10167 20161 55005

VFR

16.1°C / 12.8°C

[Mai mult]
Vânt 300º 4kt
Vizibilitate >10km
Vremea -
Nori Overcast 3100ft
Presiune 1014
Schimbă -
Brut KSAN 281051Z 30004KT 10SM OVC031 16/13 A2996 RMK AO2 SLP144 T01610128

MVFR

16.1°C / 12.2°C

[Mai mult]
Vânt 290º 4kt
Vizibilitate >10km
Vremea -
Nori Overcast 3000ft
Presiune
Schimbă -
Brut KSAN 281009Z 29004KT 10SM OVC030 16/12 A2996 RMK AO2 T01610122

MVFR

16.1°C / 12.2°C

[Mai mult]
Vânt 300º 4kt
Vizibilitate >10km
Vremea -
Nori Overcast 2900ft
Presiune 1014
Schimbă -
Brut KSAN 280951Z 30004KT 10SM OVC029 16/12 A2997 RMK AO2 SLP148 T01610122

MVFR

16.7°C / 11.7°C

[Mai mult]
Vânt 300º 5kt
Vizibilitate >10km
Vremea -
Nori Overcast 2400ft
Presiune 1015
Schimbă -
Brut KSAN 280851Z 30005KT 10SM OVC024 17/12 A2998 RMK AO2 SLP152 T01670117 58006

MVFR

16.7°C / 11.7°C

[Mai mult]
Vânt 290º 5kt
Vizibilitate >10km
Vremea -
Nori Overcast 2300ft
Presiune 1015
Schimbă -
Brut KSAN 280751Z 29005KT 10SM OVC023 17/12 A2999 RMK AO2 SLP153 T01670117 402000156

MVFR

16.7°C / 12.2°C

[Mai mult]
Vânt 300º 6kt
Vizibilitate >10km
Vremea -
Nori Overcast 2200ft
Presiune 1015
Schimbă -
Brut KSAN 280651Z 30006KT 10SM OVC022 17/12 A3000 RMK AO2 SLP157 T01670122

MVFR

16.7°C / 12.2°C

[Mai mult]
Vânt 320º 5kt
Vizibilitate >10km
Vremea -
Nori Broken Clouds 2300ft
Broken Clouds 25000ft
Presiune 1015
Schimbă -
Brut KSAN 280551Z 32005KT 10SM BKN023 BKN250 17/12 A3000 RMK AO2 SLP158 T01670122 10183 20167 50003

MVFR

16.7°C / 12.2°C

[Mai mult]
Vânt 320º 6kt
Vizibilitate >10km
Vremea -
Nori Broken Clouds 2000ft
Broken Clouds 25000ft
Presiune 1015
Schimbă -
Brut KSAN 280451Z 32006KT 10SM BKN020 BKN250 17/12 A3000 RMK AO2 SLP159 T01670122

MVFR

16.7°C / 12.2°C

[Mai mult]
Vânt 300º 5kt
Vizibilitate >10km
Vremea -
Nori Broken Clouds 1900ft
Broken Clouds 25000ft
Presiune 1015
Schimbă -
Brut KSAN 280351Z 30005KT 10SM BKN019 BKN250 17/12 A3000 RMK AO2 SLP157 T01670122

MVFR

16.7°C / 12.2°C

[Mai mult]
Vânt 300º 5kt
Vizibilitate >10km
Vremea -
Nori Broken Clouds 1900ft
Broken Clouds 25000ft
Presiune
Schimbă -
Brut KSAN 280326Z 30005KT 10SM BKN019 BKN250 17/12 A2999 RMK AO2 T01670122

VFR

16.7°C / 12.2°C

[Mai mult]
Vânt 290º 7kt
Vizibilitate >10km
Vremea -
Nori Scattered Clouds 2000ft
Broken Clouds 25000ft
Presiune 1015
Schimbă -
Brut KSAN 280251Z 29007KT 10SM SCT020 BKN250 17/12 A2999 RMK AO2 SLP155 T01670122 55006

VFR

16.7°C / 11.1°C

[Mai mult]
Vânt 290º 6kt
Vizibilitate >10km
Vremea -
Nori Few Clouds 2500ft
Broken Clouds 25000ft
Presiune 1015
Schimbă -
Brut KSAN 280151Z 29006KT 10SM FEW025 BKN250 17/11 A2999 RMK AO2 SLP155 T01670111

VFR

17.8°C / 11.1°C

[Mai mult]
Vânt 290º 8kt
Vizibilitate >10km
Vremea -
Nori Few Clouds 2500ft
Broken Clouds 25000ft
Presiune 1015
Schimbă -
Brut KSAN 280051Z 29008KT 10SM FEW025 BKN250 18/11 A3000 RMK AO2 SLP157 T01780111

VFR

18.3°C / 11.7°C

[Mai mult]
Vânt 310º 8kt
Vizibilitate >10km
Vremea -
Nori Few Clouds 2500ft
Broken Clouds 25000ft
Presiune 1016
Schimbă -
Brut KSAN 272351Z 31008KT 10SM FEW025 BKN250 18/12 A3001 RMK AO2 SLP161 T01830117 10200 20178 56013

VFR

18.9°C / 11.7°C

[Mai mult]
Vânt 300º 8kt
Vizibilitate >10km
Vremea -
Nori Few Clouds 2500ft
Broken Clouds 25000ft
Presiune 1016
Schimbă -
Brut KSAN 272251Z 30008KT 10SM FEW025 BKN250 19/12 A3001 RMK AO2 SLP163 T01890117

VFR

18.9°C / 11.1°C

[Mai mult]
Vânt 300º 8kt
Vizibilitate >10km
Vremea -
Nori Few Clouds 2500ft
Scattered Clouds 25000ft
Presiune 1017
Schimbă -
Brut KSAN 272151Z 30008KT 10SM FEW025 SCT250 19/11 A3003 RMK AO2 SLP170 T01890111

VFR

18.9°C / 11.7°C

[Mai mult]
Vânt 280º variable 240º to 310º 9kt
Vizibilitate >10km
Vremea -
Nori Clear
Presiune 1017
Schimbă -
Brut KSAN 272051Z 28009KT 240V310 10SM CLR 19/12 A3005 RMK AO2 SLP174 T01890117 58011

VFR

18.9°C / 11.1°C

[Mai mult]
Vânt 260º 7kt Gust 15kt
Vizibilitate >10km
Vremea -
Nori Few Clouds 2700ft
Scattered Clouds 25000ft
Presiune 1017
Schimbă -
Brut KSAN 271951Z 26007G15KT 10SM FEW027 SCT250 19/11 A3006 RMK AO2 SLP178 T01890111

MVFR

19.4°C / 11.1°C

[Mai mult]
Vânt 310º 6kt
Vizibilitate >10km
Vremea -
Nori Broken Clouds 3000ft
Presiune 1018
Schimbă -
Brut KSAN 271851Z 31006KT 10SM BKN030 19/11 A3008 RMK AO2 SLP184 T01940111

MVFR

18.3°C / 10.6°C

[Mai mult]
Vânt 280º 8kt
Vizibilitate >10km
Vremea -
Nori Broken Clouds 3000ft
Presiune
Schimbă -
Brut KSAN 271837Z 28008KT 10SM BKN030 18/11 A3007 RMK AO2 T01830106

TAF pentru San Diego (KSAN)

From till


From till Wind 270º 6kt. Visibility 10km or more. Broken Clouds 3000ft.
From till Wind 260º 10kt. Visibility 10km or more. Broken Clouds 2800ft.
From till Wind 230º 7kt. Visibility 10km or more. Overcast 2500ft.
From till Wind 200º 9kt. Visibility 10km or more. Overcast 2000ft.

Brut: KSAN 281127Z 2812/2918 27006KT P6SM BKN030 FM281800 26010KT P6SM BKN028 FM290200 23007KT P6SM OVC025 FM290900 20009KT P6SM OVC020

Radar și nowcast de precipitații pentru San Diego

Burniță
Ușoară
Moderat
Greu
Foarte greu
Grindină

Markerul de locație este plasat în San Diego. Această animație arată radarul de precipitații pentru ultima oră, precum și o 1h prognoză. Ploaia sau ninsoarea slabă ar putea fi invizibilă pentru radar. Intensitatea precipitațiilor este codificată prin culori, de la albastru deschis la portocaliu.

Imagini satelitare actuale pentru: San Diego, S.U.A.

Markerul cu locaţia este poziţionat pe San Diego. [Mai mult]

Imaginea satelitară în timp real combină lumina vizibilă din timpul zilei cu radiația cu infraroșu din timpul nopții. Pe timp de noapte, imaginea nu este întunecată, deoarece radiația cu infraroșu poate detecta diferențele de temperatură. Din păcate, norii joși și ceața sunt greu de recunoscut față de temperatura de la sol, din această cauză putând fi invizibili pe timp de noapte. Imaginile satelitare Meteosat pentru Europa sunt actualizate în timp real din 5 în 5 minute. Imaginile GOES-16/GOES-17 (America de Nord și de Sud) și Himawari (Asia) sunt actualizate din 10 în 10 minute.

Mergi sus